createdAt,value
2023-02-19T00:01:56.118Z,99510.47
2023-02-19T00:04:49.587Z,99514.27
2023-02-19T00:07:27.860Z,99513.71
2023-02-19T00:10:06.597Z,99509.67
2023-02-19T00:13:09.450Z,99501.32
2023-02-19T00:16:03.630Z,99496.61
2023-02-19T00:19:03.108Z,99496.29
2023-02-19T00:22:37.261Z,99497.17
2023-02-19T00:26:18.221Z,99491.68
2023-02-19T00:29:36.128Z,99485.81
2023-02-19T00:36:12.556Z,99487.50
2023-02-19T00:39:26.107Z,99483.73
2023-02-19T00:43:00.647Z,99486.95
2023-02-19T00:46:26.491Z,99485.58
2023-02-19T00:50:09.011Z,99480.74
2023-02-19T00:53:05.975Z,99482.31
2023-02-19T00:56:08.986Z,99486.50
2023-02-19T00:59:14.128Z,99482.67
2023-02-19T01:02:50.999Z,99480.80
2023-02-19T01:06:35.851Z,99485.70
2023-02-19T01:09:35.129Z,99481.55
2023-02-19T01:12:39.101Z,99477.60
2023-02-19T01:15:59.135Z,99474.99
2023-02-19T01:19:10.032Z,99474.13
2023-02-19T01:22:40.449Z,99465.48
2023-02-19T01:25:54.047Z,99464.05
2023-02-19T01:29:01.639Z,99461.11
2023-02-19T01:32:34.223Z,99459.17
2023-02-19T01:39:14.050Z,99449.49
2023-02-19T01:42:06.170Z,99450.04
2023-02-19T01:44:51.619Z,99443.63
2023-02-19T01:48:00.929Z,99442.79
2023-02-19T01:50:57.135Z,99437.05
2023-02-19T01:53:54.628Z,99436.90
2023-02-19T01:56:32.088Z,99428.94
2023-02-19T01:59:28.238Z,99426.37
2023-02-19T02:02:42.598Z,99423.30
2023-02-19T02:06:08.542Z,99425.27
2023-02-19T02:09:16.331Z,99420.26
2023-02-19T02:13:00.408Z,99414.77
2023-02-19T02:16:22.635Z,99410.96
2023-02-19T02:19:34.097Z,99407.69
2023-02-19T02:22:30.928Z,99401.30
2023-02-19T02:25:28.837Z,99397.19
2023-02-19T02:28:43.457Z,99391.77
2023-02-19T02:32:05.159Z,99383.96
2023-02-19T02:35:20.795Z,99374.77
2023-02-19T02:38:12.369Z,99369.02
2023-02-19T02:40:52.982Z,99352.11
2023-02-19T02:43:54.772Z,99344.48
2023-02-19T02:47:03.059Z,99339.45
2023-02-19T02:50:03.526Z,99336.52
2023-02-19T02:53:07.804Z,99342.32
2023-02-19T02:56:03.095Z,99341.33
2023-02-19T02:58:44.036Z,99341.05
2023-02-19T03:02:14.822Z,99343.84
2023-02-19T03:05:32.046Z,99351.48
2023-02-19T03:08:19.013Z,99355.36
2023-02-19T03:11:42.546Z,99356.57
2023-02-19T03:15:18.094Z,99352.83
2023-02-19T03:18:21.823Z,99357.32
2023-02-19T03:24:28.031Z,99358.45
2023-02-19T03:27:06.406Z,99357.21
2023-02-19T03:29:46.453Z,99357.00
2023-02-19T03:32:35.029Z,99351.61
2023-02-19T03:35:32.505Z,99346.92
2023-02-19T03:38:13.058Z,99348.89
2023-02-19T03:41:22.425Z,99356.39
2023-02-19T03:44:24.307Z,99350.31
2023-02-19T03:47:31.874Z,99345.19
2023-02-19T03:50:28.905Z,99348.62
2023-02-19T03:53:48.297Z,99348.48
2023-02-19T03:56:21.872Z,99342.35
2023-02-19T03:58:56.300Z,99346.41
2023-02-19T04:02:00.981Z,99352.80
2023-02-19T04:04:45.666Z,99355.08
2023-02-19T04:07:32.643Z,99351.98
2023-02-19T04:10:52.487Z,99348.83
2023-02-19T04:13:55.211Z,99356.13
2023-02-19T04:16:30.677Z,99359.80
2023-02-19T04:19:34.164Z,99362.27
2023-02-19T04:22:16.608Z,99360.20
2023-02-19T04:25:11.480Z,99365.51
2023-02-19T04:28:05.986Z,99360.73
2023-02-19T04:31:21.725Z,99360.77
2023-02-19T04:33:58.214Z,99363.27
2023-02-19T04:36:30.448Z,99364.02
2023-02-19T04:39:15.160Z,99364.81
2023-02-19T04:42:19.248Z,99367.16
2023-02-19T04:45:08.206Z,99371.68
2023-02-19T04:47:44.845Z,99372.69
2023-02-19T04:50:51.297Z,99369.98
2023-02-19T04:54:06.202Z,99369.14
2023-02-19T04:57:27.504Z,99370.75
2023-02-19T05:00:00.809Z,99368.30
2023-02-19T05:02:59.013Z,99362.77
2023-02-19T05:06:41.225Z,99359.79
2023-02-19T05:09:24.086Z,99360.06
2023-02-19T05:11:59.757Z,99361.13
2023-02-19T05:14:34.473Z,99365.36
2023-02-19T05:17:06.656Z,99363.19
2023-02-19T05:19:38.239Z,99365.52
2023-02-19T05:22:09.020Z,99365.37
2023-02-19T05:24:51.239Z,99367.13
2023-02-19T05:27:33.197Z,99366.22
2023-02-19T05:30:17.243Z,99363.95
2023-02-19T05:33:06.775Z,99361.23
2023-02-19T05:36:08.350Z,99369.15
2023-02-19T05:39:07.684Z,99366.91
2023-02-19T05:41:37.915Z,99367.11
2023-02-19T05:44:11.869Z,99366.48
2023-02-19T05:46:43.385Z,99366.75
2023-02-19T05:49:16.938Z,99374.09
2023-02-19T05:52:02.219Z,99378.17
2023-02-19T05:54:47.101Z,99381.52
2023-02-19T05:57:41.382Z,99385.71
2023-02-19T06:00:27.939Z,99389.33
2023-02-19T06:03:14.314Z,99395.50
2023-02-19T06:05:53.820Z,99400.65
2023-02-19T06:08:40.424Z,99402.43
2023-02-19T06:11:15.011Z,99402.96
2023-02-19T06:14:09.267Z,99400.91
2023-02-19T06:16:46.307Z,99410.14
2023-02-19T06:19:21.941Z,99417.78
2023-02-19T06:21:54.944Z,99422.64
2023-02-19T06:24:30.002Z,99426.30
2023-02-19T06:27:10.165Z,99432.89
2023-02-19T06:30:19.690Z,99436.89
2023-02-19T06:32:55.178Z,99438.16
2023-02-19T06:35:46.899Z,99442.14
2023-02-19T06:38:16.371Z,99439.31
2023-02-19T06:40:54.189Z,99440.09
2023-02-19T06:43:49.540Z,99440.20
2023-02-19T06:46:18.970Z,99445.77
2023-02-19T06:48:52.284Z,99451.07
2023-02-19T06:51:29.974Z,99451.54
2023-02-19T06:54:22.599Z,99453.80
2023-02-19T06:56:59.237Z,99461.35
2023-02-19T06:59:46.145Z,99466.20
2023-02-19T07:02:16.704Z,99468.55
2023-02-19T07:04:52.236Z,99472.83
2023-02-19T07:07:20.816Z,99481.80
2023-02-19T07:09:50.025Z,99487.91
2023-02-19T07:12:18.853Z,99499.53
2023-02-19T07:14:48.611Z,99505.44
2023-02-19T07:17:20.979Z,99508.60
2023-02-19T07:20:03.668Z,99503.05
2023-02-19T07:22:35.395Z,99511.03
2023-02-19T07:28:11.054Z,99517.20
2023-02-19T07:30:44.498Z,99517.16
2023-02-19T07:33:16.217Z,99512.47
2023-02-19T07:35:53.446Z,99505.29
2023-02-19T07:38:28.770Z,99506.06
2023-02-19T07:41:10.228Z,99507.44
2023-02-19T07:43:48.945Z,99513.12
2023-02-19T07:46:30.285Z,99518.83
2023-02-19T07:49:04.884Z,99523.10
2023-02-19T07:52:00.514Z,99528.35
2023-02-19T07:54:51.116Z,99527.86
2023-02-19T07:57:22.352Z,99533.27
2023-02-19T07:59:59.249Z,99537.44
2023-02-19T08:02:48.301Z,99539.00
2023-02-19T08:05:24.584Z,99546.88
2023-02-19T08:07:55.693Z,99551.46
2023-02-19T08:10:49.970Z,99559.39
2023-02-19T08:13:28.324Z,99561.45
2023-02-19T08:16:47.384Z,99561.42
2023-02-19T08:19:26.230Z,99561.47
2023-02-19T08:22:02.109Z,99566.52
2023-02-19T08:24:34.191Z,99570.98
2023-02-19T08:27:08.302Z,99576.81
2023-02-19T08:29:44.061Z,99582.64
2023-02-19T08:32:22.950Z,99584.37
2023-02-19T08:34:53.859Z,99593.89
2023-02-19T08:37:33.720Z,99597.84
2023-02-19T08:40:07.994Z,99605.98
2023-02-19T08:42:48.353Z,99609.30
2023-02-19T08:45:24.397Z,99611.67
2023-02-19T08:48:03.542Z,99617.09
2023-02-19T08:50:34.700Z,99613.06
2023-02-19T08:53:06.984Z,99623.08
2023-02-19T08:55:50.376Z,99624.33
2023-02-19T08:58:28.096Z,99628.98
2023-02-19T09:01:26.324Z,99641.48
2023-02-19T09:04:00.702Z,99640.33
2023-02-19T09:06:35.028Z,99649.41
2023-02-19T09:09:10.552Z,99654.86
2023-02-19T09:11:54.208Z,99662.04
2023-02-19T09:14:33.930Z,99661.94
2023-02-19T09:17:30.397Z,99668.70
2023-02-19T09:20:04.616Z,99680.25
2023-02-19T09:22:37.420Z,99685.78
2023-02-19T09:25:06.191Z,99693.16
2023-02-19T09:28:00.006Z,99695.39
2023-02-19T09:30:28.442Z,99709.08
2023-02-19T09:32:57.015Z,99714.54
2023-02-19T09:35:28.117Z,99716.31
2023-02-19T09:38:00.537Z,99720.90
2023-02-19T09:40:30.853Z,99729.36
2023-02-19T09:43:02.632Z,99731.56
2023-02-19T09:45:35.974Z,99739.48
2023-02-19T09:48:25.607Z,99739.52
2023-02-19T09:51:12.702Z,99744.52
2023-02-19T09:54:00.940Z,99748.98
2023-02-19T09:56:40.538Z,99752.00
2023-02-19T09:59:41.693Z,99757.51
2023-02-19T10:02:39.511Z,99757.27
2023-02-19T10:05:19.242Z,99758.44
2023-02-19T10:07:53.063Z,99760.52
2023-02-19T10:10:33.012Z,99765.67
2023-02-19T10:13:36.810Z,99768.02
2023-02-19T10:16:19.561Z,99762.63
2023-02-19T10:18:51.435Z,99770.61
2023-02-19T10:21:35.831Z,99771.13
2023-02-19T10:24:08.664Z,99776.52
2023-02-19T10:26:43.781Z,99775.23
2023-02-19T10:29:45.072Z,99779.69
2023-02-19T10:32:27.641Z,99790.17
2023-02-19T10:35:15.419Z,99792.09
2023-02-19T10:37:54.878Z,99791.22
2023-02-19T10:40:44.472Z,99792.12
2023-02-19T10:43:33.556Z,99798.26
2023-02-19T10:46:41.912Z,99797.41
2023-02-19T10:49:41.010Z,99801.83
2023-02-19T10:52:40.424Z,99808.18
2023-02-19T10:55:21.615Z,99805.96
2023-02-19T10:58:47.169Z,99812.88
2023-02-19T11:01:30.173Z,99818.45
2023-02-19T11:04:26.225Z,99815.80
2023-02-19T11:07:01.931Z,99811.80
2023-02-19T11:09:45.689Z,99824.35
2023-02-19T11:12:28.737Z,99824.23
2023-02-19T11:15:25.524Z,99825.60
2023-02-19T11:18:20.671Z,99829.89
2023-02-19T11:20:56.425Z,99836.83
2023-02-19T11:23:43.943Z,99840.54
2023-02-19T11:26:38.341Z,99842.95
2023-02-19T11:29:25.056Z,99848.08
2023-02-19T11:32:51.363Z,99848.92
2023-02-19T11:36:05.169Z,99850.73
2023-02-19T11:39:21.031Z,99854.39
2023-02-19T11:42:01.978Z,99857.08
2023-02-19T11:45:19.464Z,99858.95
2023-02-19T11:48:19.481Z,99863.86
2023-02-19T11:51:24.400Z,99862.61
2023-02-19T11:54:16.272Z,99862.41
2023-02-19T11:57:09.401Z,99865.02
2023-02-19T12:00:34.587Z,99862.79
2023-02-19T12:03:54.680Z,99876.05
2023-02-19T12:07:22.154Z,99876.58
2023-02-19T12:10:16.446Z,99881.74
2023-02-19T12:13:21.542Z,99885.51
2023-02-19T12:16:12.201Z,99886.98
2023-02-19T12:19:26.315Z,99889.16
2023-02-19T12:22:34.596Z,99887.11
2023-02-19T12:26:11.774Z,99893.91
2023-02-19T12:29:18.655Z,99899.45
2023-02-19T12:32:29.589Z,99906.14
2023-02-19T12:35:39.028Z,99914.20
2023-02-19T12:38:38.664Z,99921.03
2023-02-19T12:41:36.585Z,99928.20
2023-02-19T12:44:38.165Z,99932.02
2023-02-19T12:47:37.651Z,99921.92
2023-02-19T12:50:37.791Z,99919.92
2023-02-19T12:53:21.160Z,99907.55
2023-02-19T12:55:51.944Z,99910.23
2023-02-19T12:58:31.590Z,99911.27
2023-02-19T13:01:00.905Z,99909.50
2023-02-19T13:03:35.536Z,99910.55
2023-02-19T13:06:48.684Z,99909.73
2023-02-19T13:10:00.627Z,99918.35
2023-02-19T13:13:01.920Z,99918.61
2023-02-19T13:15:42.110Z,99915.02
2023-02-19T13:18:20.001Z,99912.59
2023-02-19T13:21:48.387Z,99915.22
2023-02-19T13:24:33.844Z,99916.40
2023-02-19T13:28:18.996Z,99915.96
2023-02-19T13:31:26.740Z,99923.08
2023-02-19T13:34:55.104Z,99940.23
2023-02-19T13:37:24.561Z,99943.54
2023-02-19T13:40:40.089Z,99950.37
2023-02-19T13:43:36.764Z,99950.80
2023-02-19T13:46:16.877Z,99948.94
2023-02-19T13:48:48.692Z,99957.00
2023-02-19T13:51:22.012Z,99962.96
2023-02-19T13:54:44.865Z,99970.45
2023-02-19T13:57:28.375Z,99968.90
2023-02-19T13:59:58.311Z,99975.33
2023-02-19T14:02:38.147Z,99976.27
2023-02-19T14:05:11.929Z,99983.89
2023-02-19T14:07:53.191Z,99975.18
2023-02-19T14:11:00.954Z,99970.55
2023-02-19T14:13:48.072Z,99978.17
2023-02-19T14:16:50.693Z,99977.41
2023-02-19T14:19:41.729Z,99979.05
2023-02-19T14:23:09.817Z,99983.42
2023-02-19T14:25:55.655Z,99979.42
2023-02-19T14:28:46.857Z,99983.80
2023-02-19T14:31:34.402Z,99992.70
2023-02-19T14:34:27.167Z,99993.28
2023-02-19T14:37:02.551Z,99996.36
2023-02-19T14:39:40.845Z,100001.75
2023-02-19T14:42:23.192Z,100007.40
2023-02-19T14:44:57.524Z,100007.61
2023-02-19T14:47:35.160Z,100012.61
2023-02-19T14:50:12.550Z,100014.55
2023-02-19T14:52:54.612Z,100021.44
2023-02-19T14:55:29.815Z,100013.44
2023-02-19T14:58:15.996Z,100016.02
2023-02-19T15:00:54.799Z,100017.84
2023-02-19T15:03:29.395Z,100014.84
2023-02-19T15:06:06.496Z,100021.70
2023-02-19T15:08:46.153Z,100026.96
2023-02-19T15:11:33.035Z,100037.06
2023-02-19T15:14:08.473Z,100035.96
2023-02-19T15:16:37.938Z,100035.30
2023-02-19T15:19:20.061Z,100042.21
2023-02-19T15:21:52.335Z,100051.63
2023-02-19T15:24:21.145Z,100044.95
2023-02-19T15:26:55.169Z,100044.70
2023-02-19T15:29:27.822Z,100053.48
2023-02-19T15:32:00.096Z,100059.64
2023-02-19T15:34:31.256Z,100059.91
2023-02-19T15:37:06.934Z,100058.36
2023-02-19T15:39:45.132Z,100058.27
2023-02-19T15:42:49.258Z,100062.75
2023-02-19T15:45:36.056Z,100071.92
2023-02-19T15:48:25.303Z,100078.33
2023-02-19T15:51:14.203Z,100080.23
2023-02-19T15:54:07.071Z,100082.64
2023-02-19T15:56:44.383Z,100094.79
2023-02-19T15:59:50.254Z,100097.32
2023-02-19T16:02:36.354Z,100103.05
2023-02-19T16:05:54.480Z,100106.08
2023-02-19T16:08:30.978Z,100099.15
2023-02-19T16:11:32.835Z,100096.38
2023-02-19T16:14:49.524Z,100091.95
2023-02-19T16:18:18.529Z,100093.38
2023-02-19T16:21:33.704Z,100099.29
2023-02-19T16:24:43.580Z,100107.58
2023-02-19T16:27:50.308Z,100120.81
2023-02-19T16:31:05.625Z,100127.08
2023-02-19T16:34:47.073Z,100130.08
2023-02-19T16:37:40.897Z,100139.85
2023-02-19T16:41:19.783Z,100151.17
2023-02-19T16:44:35.210Z,100155.82
2023-02-19T16:47:34.606Z,100155.45
2023-02-19T16:50:18.888Z,100153.42
2023-02-19T16:52:58.010Z,100157.90
2023-02-19T16:55:31.488Z,100160.14
2023-02-19T16:58:02.644Z,100167.55
2023-02-19T17:00:36.152Z,100172.31
2023-02-19T17:03:23.148Z,100173.24
2023-02-19T17:06:12.723Z,100185.05
2023-02-19T17:09:07.974Z,100188.00
2023-02-19T17:11:42.945Z,100203.12
2023-02-19T17:14:12.216Z,100214.41
2023-02-19T17:16:48.016Z,100217.96
2023-02-19T17:19:18.934Z,100221.36
2023-02-19T17:22:12.057Z,100219.17
2023-02-19T17:24:52.169Z,100228.07
2023-02-19T17:27:20.910Z,100231.25
2023-02-19T17:29:49.273Z,100235.47
2023-02-19T17:32:23.111Z,100239.14
2023-02-19T17:35:09.206Z,100243.66
2023-02-19T17:38:11.889Z,100239.01
2023-02-19T17:40:50.848Z,100250.27
2023-02-19T17:44:07.570Z,100250.29
2023-02-19T17:46:55.767Z,100253.82
2023-02-19T17:49:36.799Z,100257.00
2023-02-19T17:52:30.987Z,100260.30
2023-02-19T17:55:04.544Z,100255.81
2023-02-19T17:57:37.091Z,100254.80
2023-02-19T18:00:16.772Z,100259.14
2023-02-19T18:02:45.606Z,100259.33
2023-02-19T18:05:23.913Z,100266.59
2023-02-19T18:07:56.087Z,100269.91
2023-02-19T18:10:25.525Z,100275.96
2023-02-19T18:12:54.329Z,100277.04
2023-02-19T18:15:28.273Z,100274.08
2023-02-19T18:18:36.377Z,100280.00
2023-02-19T18:21:28.679Z,100285.36
2023-02-19T18:23:58.011Z,100290.92
2023-02-19T18:26:31.244Z,100293.02
2023-02-19T18:29:01.057Z,100294.94
2023-02-19T18:31:34.708Z,100297.73
2023-02-19T18:34:31.677Z,100298.10
2023-02-19T18:37:04.076Z,100301.23
2023-02-19T18:39:33.690Z,100299.15
2023-02-19T18:42:31.189Z,100297.79
2023-02-19T18:45:13.100Z,100292.59
2023-02-19T18:47:42.647Z,100296.23
2023-02-19T18:50:27.484Z,100297.11
2023-02-19T18:53:16.583Z,100297.12
2023-02-19T18:55:51.878Z,100293.83
2023-02-19T18:58:29.672Z,100302.14
2023-02-19T19:01:04.743Z,100306.11
2023-02-19T19:03:41.909Z,100301.64
2023-02-19T19:06:16.648Z,100307.52
2023-02-19T19:08:53.971Z,100312.21
2023-02-19T19:11:25.957Z,100313.42
2023-02-19T19:14:11.173Z,100313.77
2023-02-19T19:16:53.080Z,100316.52
2023-02-19T19:19:34.684Z,100317.56
2023-02-19T19:22:03.543Z,100318.95
2023-02-19T19:24:47.982Z,100319.48
2023-02-19T19:27:45.320Z,100318.80
2023-02-19T19:30:38.744Z,100321.05
2023-02-19T19:33:11.992Z,100322.09
2023-02-19T19:35:53.120Z,100320.71
2023-02-19T19:38:26.528Z,100321.73
2023-02-19T19:41:06.660Z,100320.02
2023-02-19T19:43:41.982Z,100317.95
2023-02-19T19:46:19.513Z,100318.30
2023-02-19T19:48:50.533Z,100324.52
2023-02-19T19:51:41.582Z,100325.22
2023-02-19T19:54:32.077Z,100323.14
2023-02-19T19:57:09.197Z,100315.70
2023-02-19T19:59:57.641Z,100319.84
2023-02-19T20:02:41.778Z,100318.96
2023-02-19T20:05:38.178Z,100321.73
2023-02-19T20:08:12.523Z,100330.73
2023-02-19T20:11:04.146Z,100330.75
2023-02-19T20:13:39.025Z,100330.06
2023-02-19T20:16:15.215Z,100332.31
2023-02-19T20:19:08.811Z,100334.89
2023-02-19T20:21:59.570Z,100338.36
2023-02-19T20:24:35.256Z,100330.92
2023-02-19T20:27:10.771Z,100336.81
2023-02-19T20:29:45.428Z,100348.56
2023-02-19T20:32:18.877Z,100357.90
2023-02-19T20:34:53.682Z,100358.93
2023-02-19T20:37:34.523Z,100359.46
2023-02-19T20:40:08.589Z,100362.42
2023-02-19T20:42:46.861Z,100358.42
2023-02-19T20:45:33.863Z,100360.67
2023-02-19T20:48:27.180Z,100359.11
2023-02-19T20:51:01.297Z,100361.88
2023-02-19T20:53:43.792Z,100363.60
2023-02-19T20:56:29.958Z,100359.80
2023-02-19T20:59:05.249Z,100358.91
2023-02-19T21:01:39.710Z,100363.92
2023-02-19T21:04:19.766Z,100370.52
2023-02-19T21:07:10.502Z,100373.98
2023-02-19T21:10:15.891Z,100383.84
2023-02-19T21:12:49.708Z,100391.80
2023-02-19T21:15:49.387Z,100395.61
2023-02-19T21:18:23.545Z,100403.04
2023-02-19T21:20:52.486Z,100407.36
2023-02-19T21:23:51.820Z,100407.70
2023-02-19T21:26:45.888Z,100406.67
2023-02-19T21:29:27.921Z,100408.05
2023-02-19T21:32:04.170Z,100411.52
2023-02-19T21:34:48.279Z,100417.91
2023-02-19T21:37:30.880Z,100414.29
2023-02-19T21:40:10.331Z,100408.41
2023-02-19T21:43:00.718Z,100403.91
2023-02-19T21:45:56.688Z,100407.20
2023-02-19T21:48:38.699Z,100405.30
2023-02-19T21:51:39.764Z,100406.69
2023-02-19T21:54:55.035Z,100401.66
2023-02-19T21:57:41.629Z,100403.55
2023-02-19T22:00:17.173Z,100398.89
2023-02-19T22:02:58.815Z,100394.56
2023-02-19T22:05:38.603Z,100393.52
2023-02-19T22:08:29.016Z,100391.27
2023-02-19T22:11:26.430Z,100385.23
2023-02-19T22:14:10.486Z,100382.80
2023-02-19T22:17:00.589Z,100381.25
2023-02-19T22:19:31.893Z,100385.39
2023-02-19T22:22:04.833Z,100382.45
2023-02-19T22:24:33.410Z,100383.30
2023-02-19T22:27:22.962Z,100384.70
2023-02-19T22:30:22.319Z,100382.45
2023-02-19T22:32:52.247Z,100373.79
2023-02-19T22:35:21.911Z,100373.77
2023-02-19T22:37:51.239Z,100374.65
2023-02-19T22:40:37.376Z,100373.61
2023-02-19T22:43:09.425Z,100368.05
2023-02-19T22:45:43.882Z,100371.50
2023-02-19T22:48:29.415Z,100370.11
2023-02-19T22:51:21.467Z,100372.00
2023-02-19T22:54:04.324Z,100370.96
2023-02-19T22:56:56.738Z,100371.66
2023-02-19T22:59:36.804Z,100366.30
2023-02-19T23:02:14.630Z,100360.40
2023-02-19T23:06:23.334Z,100356.93
2023-02-19T23:10:43.717Z,100349.98
2023-02-19T23:14:20.079Z,100340.81
2023-02-19T23:18:10.365Z,100340.65
2023-02-19T23:22:03.916Z,100340.48
2023-02-19T23:28:53.654Z,100329.09
2023-02-19T23:31:51.278Z,100324.95
2023-02-19T23:35:11.303Z,100325.69
2023-02-19T23:39:15.115Z,100322.25
2023-02-19T23:42:24.380Z,100316.73
2023-02-19T23:45:10.980Z,100310.34
2023-02-19T23:48:35.834Z,100301.36
2023-02-19T23:51:19.193Z,100302.40
2023-02-19T23:54:06.223Z,100310.19
2023-02-19T23:57:33.377Z,100321.09
